Time;durP1;ratioP1;P1;durP2;ratioP2;P2;SDS_P1;SDS_P2;PMS_P1;PMS_P2;Temp;Humidity;BMP_temperature;BMP_pressure;BME280_temperature;BME280_humidity;BME280_pressure;Samples;Min_cycle;Max_cycle;Signal;HPM_P1;HPM_P2
2022/07/11 00:01:43;;;;;;;2.60;2.05;;;;;;;;;;5036810;28;20111;-77
2022/07/11 00:04:08;;;;;;;2.95;1.98;;;;;;;;;;5027259;28;20040;-78
2022/07/11 00:06:33;;;;;;;2.70;1.95;;;;;;;;;;5029292;28;20421;-79
2022/07/11 00:08:59;;;;;;;3.25;2.15;;;;;;;;;;5036611;28;20108;-78
2022/07/11 00:11:24;;;;;;;9.15;2.05;;;;;;;;;;5031248;28;20032;-80
2022/07/11 00:13:50;;;;;;;4.25;2.10;;;;;;;;;;5037317;28;20024;-79
2022/07/11 00:16:15;;;;;;;2.20;2.00;;;;;;;;;;5031042;28;20099;-78
2022/07/11 00:18:41;;;;;;;3.15;2.50;;;;;;;;;;5023912;28;20021;-80
2022/07/11 00:21:06;;;;;;;6.20;2.63;;;;;;;;;;5040596;28;20453;-79
2022/07/11 00:23:31;;;;;;;4.80;2.25;;;;;;;;;;5040464;28;20079;-78
2022/07/11 00:25:57;;;;;;;3.00;2.65;;;;;;;;;;5038892;28;20055;-79
2022/07/11 00:28:22;;;;;;;3.55;2.17;;;;;;;;;;5041649;28;20029;-78
2022/07/11 00:30:47;;;;;;;3.58;3.28;;;;;;;;;;5039528;28;20086;-78
2022/07/11 00:33:13;;;;;;;3.17;2.45;;;;;;;;;;5036634;28;20090;-78
2022/07/11 00:35:38;;;;;;;4.30;2.67;;;;;;;;;;5037081;28;20025;-79
2022/07/11 00:38:04;;;;;;;2.53;2.33;;;;;;;;;;5028682;28;20028;-79
2022/07/11 00:40:29;;;;;;;2.90;2.42;;;;;;;;;;5037749;28;20028;-77
2022/07/11 00:42:54;;;;;;;3.92;2.40;;;;;;;;;;5033684;28;20064;-79
2022/07/11 00:45:23;;;;;;;3.08;2.33;;;;;;;;;;5041073;28;20033;-77
2022/07/11 00:47:48;;;;;;;4.10;2.33;;;;;;;;;;5035382;28;20036;-80
2022/07/11 00:50:14;;;;;;;5.78;2.70;;;;;;;;;;5037597;28;20436;-80
2022/07/11 00:52:40;;;;;;;4.88;2.65;;;;;;;;;;5033961;28;20526;-80
2022/07/11 00:55:06;;;;;;;2.83;2.53;;;;;;;;;;5036227;28;20028;-77
2022/07/11 00:57:32;;;;;;;2.88;2.25;;;;;;;;;;5037856;28;20021;-78
2022/07/11 00:59:58;;;;;;;4.53;2.33;;;;;;;;;;5029428;28;20044;-79
2022/07/11 01:02:24;;;;;;;2.85;2.00;;;;;;;;;;5039024;28;20099;-79
2022/07/11 01:04:49;;;;;;;2.20;2.00;;;;;;;;;;5034591;28;20028;-77
2022/07/11 01:07:15;;;;;;;2.20;2.10;;;;;;;;;;5036269;28;20100;-77
2022/07/11 01:09:40;;;;;;;5.32;2.28;;;;;;;;;;5032899;28;20125;-78
2022/07/11 01:12:06;;;;;;;4.35;2.20;;;;;;;;;;5039858;28;20021;-78
2022/07/11 01:14:31;;;;;;;2.30;2.10;;;;;;;;;;5037162;28;20083;-78
2022/07/11 01:16:56;;;;;;;2.97;2.08;;;;;;;;;;5038869;28;20029;-78
2022/07/11 01:19:22;;;;;;;2.85;2.25;;;;;;;;;;5034178;28;20460;-77
2022/07/11 01:21:49;;;;;;;3.13;2.55;;;;;;;;;;5031068;28;20036;-78
2022/07/11 01:24:14;;;;;;;2.97;2.25;;;;;;;;;;5036235;28;20025;-79
2022/07/11 01:26:40;;;;;;;2.67;2.40;;;;;;;;;;5041386;28;20313;-77
2022/07/11 01:29:09;;;;;;;2.40;2.20;;;;;;;;;;5039720;28;20036;-77
2022/07/11 01:31:37;;;;;;;2.47;2.03;;;;;;;;;;5027934;28;20129;-78
2022/07/11 01:34:03;;;;;;;4.75;2.53;;;;;;;;;;5029936;28;20459;-78
2022/07/11 01:36:28;;;;;;;4.75;2.30;;;;;;;;;;5029644;28;20025;-78
2022/07/11 01:38:53;;;;;;;2.70;1.60;;;;;;;;;;5033238;28;20032;-77
2022/07/11 01:41:19;;;;;;;3.03;2.05;;;;;;;;;;5035140;28;20390;-78
2022/07/11 01:43:44;;;;;;;3.83;2.53;;;;;;;;;;5029369;28;20032;-78
2022/07/11 01:46:09;;;;;;;3.58;2.08;;;;;;;;;;5031020;28;20036;-77
2022/07/11 01:48:35;;;;;;;3.78;2.72;;;;;;;;;;5034800;28;20468;-78
2022/07/11 01:51:00;;;;;;;3.05;2.75;;;;;;;;;;5032692;28;20037;-78
2022/07/11 01:53:25;;;;;;;3.25;2.95;;;;;;;;;;5031736;28;20500;-78
2022/07/11 01:55:51;;;;;;;4.28;3.60;;;;;;;;;;5031415;28;20066;-77
2022/07/11 01:58:16;;;;;;;2.55;2.35;;;;;;;;;;5029726;28;20078;-78
2022/07/11 02:00:42;;;;;;;4.88;2.50;;;;;;;;;;5029901;28;20036;-77
2022/07/11 02:03:08;;;;;;;4.80;2.10;;;;;;;;;;5027978;28;20111;-77
2022/07/11 02:05:33;;;;;;;3.15;2.35;;;;;;;;;;5036591;28;20052;-78
2022/07/11 02:08:13;;;;;;;4.60;2.35;;;;;;;;;;5031038;28;20116;-79
2022/07/11 02:10:40;;;;;;;4.80;2.38;;;;;;;;;;5040897;28;20369;-77
2022/07/11 02:13:05;;;;;;;3.42;2.33;;;;;;;;;;5046335;28;20017;-80
2022/07/11 02:15:31;;;;;;;3.55;2.42;;;;;;;;;;5031217;28;20356;-79
2022/07/11 02:17:57;;;;;;;4.85;2.55;;;;;;;;;;5043456;28;20055;-77
2022/07/11 02:20:23;;;;;;;4.47;2.53;;;;;;;;;;5037611;28;20033;-79
2022/07/11 02:22:48;;;;;;;2.38;2.17;;;;;;;;;;5037319;28;20017;-79
2022/07/11 02:25:14;;;;;;;2.80;2.38;;;;;;;;;;5035845;28;20476;-79
2022/07/11 02:27:39;;;;;;;2.00;1.90;;;;;;;;;;5031388;28;20109;-78
2022/07/11 02:30:05;;;;;;;3.72;2.33;;;;;;;;;;5039331;28;20034;-78
2022/07/11 02:32:30;;;;;;;4.53;2.70;;;;;;;;;;5039688;28;20040;-78
2022/07/11 02:34:56;;;;;;;4.15;2.42;;;;;;;;;;5037606;28;20032;-78
2022/07/11 02:37:21;;;;;;;2.67;2.47;;;;;;;;;;5031158;28;20448;-78
2022/07/11 02:39:47;;;;;;;2.95;2.42;;;;;;;;;;5039217;28;20421;-79
2022/07/11 02:42:12;;;;;;;2.50;2.30;;;;;;;;;;5027910;28;20040;-80
2022/07/11 02:44:38;;;;;;;2.72;2.08;;;;;;;;;;5028926;28;20021;-79
2022/07/11 02:47:03;;;;;;;2.25;2.05;;;;;;;;;;5036549;28;20024;-79
2022/07/11 02:49:30;;;;;;;2.30;2.10;;;;;;;;;;5032780;28;20032;-80
2022/07/11 02:51:55;;;;;;;3.60;1.95;;;;;;;;;;5034503;28;20037;-76
2022/07/11 02:54:21;;;;;;;2.20;2.00;;;;;;;;;;5031794;28;20043;-79
2022/07/11 02:56:46;;;;;;;5.88;2.58;;;;;;;;;;5031823;28;20055;-79
2022/07/11 02:59:11;;;;;;;2.60;2.40;;;;;;;;;;5031157;28;20083;-78
2022/07/11 03:01:37;;;;;;;4.65;2.30;;;;;;;;;;5029102;28;20032;-79
2022/07/11 03:04:02;;;;;;;3.60;2.38;;;;;;;;;;5035618;28;20032;-79
2022/07/11 03:06:27;;;;;;;6.75;2.17;;;;;;;;;;5036947;28;20033;-80
2022/07/11 03:08:53;;;;;;;2.50;2.17;;;;;;;;;;5033416;28;20086;-81
2022/07/11 03:11:19;;;;;;;2.45;2.13;;;;;;;;;;5036537;28;20365;-80
2022/07/11 03:13:45;;;;;;;2.85;2.30;;;;;;;;;;5035267;28;20021;-79
2022/07/11 03:16:10;;;;;;;2.20;2.00;;;;;;;;;;5033133;28;20044;-77
2022/07/11 03:18:35;;;;;;;3.42;2.00;;;;;;;;;;5035386;28;20044;-79
2022/07/11 03:21:01;;;;;;;2.63;1.80;;;;;;;;;;5032455;28;20041;-80
2022/07/11 03:23:26;;;;;;;2.67;2.10;;;;;;;;;;5027915;28;20029;-80
2022/07/11 03:25:51;;;;;;;1.90;1.70;;;;;;;;;;5035348;28;20033;-80
2022/07/11 03:28:17;;;;;;;2.30;1.98;;;;;;;;;;5034393;28;20033;-80
2022/07/11 03:30:42;;;;;;;3.25;1.80;;;;;;;;;;5029566;28;20035;-78
2022/07/11 03:33:07;;;;;;;4.95;1.63;;;;;;;;;;5034007;28;20112;-81
2022/07/11 03:35:42;;;;;;;3.08;1.50;;;;;;;;;;5032542;28;20056;-76
2022/07/11 03:38:08;;;;;;;2.50;1.88;;;;;;;;;;5034951;28;20340;-78
2022/07/11 03:40:33;;;;;;;3.20;1.80;;;;;;;;;;5030020;28;20048;-79
2022/07/11 03:42:58;;;;;;;2.38;1.60;;;;;;;;;;5034385;28;20440;-79
2022/07/11 03:45:24;;;;;;;3.42;1.48;;;;;;;;;;5034390;28;20040;-78
2022/07/11 03:47:49;;;;;;;2.55;1.70;;;;;;;;;;5030401;28;20044;-77
2022/07/11 03:50:15;;;;;;;2.70;1.75;;;;;;;;;;5029761;28;20049;-77
2022/07/11 03:52:40;;;;;;;1.85;1.52;;;;;;;;;;5030566;28;20472;-77
2022/07/11 03:55:07;;;;;;;2.72;1.70;;;;;;;;;;5034364;28;20451;-77
2022/07/11 03:57:33;;;;;;;3.92;1.90;;;;;;;;;;5033028;28;20024;-76
2022/07/11 03:59:59;;;;;;;3.80;2.42;;;;;;;;;;5032490;28;20070;-79
2022/07/11 04:02:24;;;;;;;2.03;1.77;;;;;;;;;;5027149;28;20044;-81
2022/07/11 04:04:49;;;;;;;1.80;1.70;;;;;;;;;;5032463;28;20029;-78
2022/07/11 04:07:15;;;;;;;1.60;1.50;;;;;;;;;;5028678;28;20021;-77
2022/07/11 04:09:40;;;;;;;3.08;1.60;;;;;;;;;;5035539;28;20116;-77
2022/07/11 04:12:06;;;;;;;3.22;1.70;;;;;;;;;;5030204;28;20086;-78
2022/07/11 04:14:31;;;;;;;2.28;1.70;;;;;;;;;;5031924;28;20033;-80
2022/07/11 04:16:56;;;;;;;2.35;1.70;;;;;;;;;;5033293;28;20041;-77
2022/07/11 04:19:23;;;;;;;7.47;1.85;;;;;;;;;;5033716;28;20086;-78
2022/07/11 04:21:48;;;;;;;2.03;1.50;;;;;;;;;;5036303;28;20653;-78
2022/07/11 04:24:14;;;;;;;2.30;1.52;;;;;;;;;;5026660;28;20082;-78
2022/07/11 04:26:40;;;;;;;2.13;1.30;;;;;;;;;;5034661;28;20378;-78
2022/07/11 04:29:05;;;;;;;2.13;1.67;;;;;;;;;;5035571;28;20017;-78
2022/07/11 04:31:31;;;;;;;3.08;1.50;;;;;;;;;;5030244;28;20033;-77
2022/07/11 04:33:56;;;;;;;2.80;1.73;;;;;;;;;;5034084;28;20662;-77
2022/07/11 04:36:22;;;;;;;2.85;1.50;;;;;;;;;;5032230;28;20162;-78
2022/07/11 04:38:49;;;;;;;2.78;1.27;;;;;;;;;;5032798;28;20064;-78
2022/07/11 04:41:14;;;;;;;1.65;1.30;;;;;;;;;;5026948;28;20048;-79
2022/07/11 04:43:39;;;;;;;2.20;1.40;;;;;;;;;;5033579;28;20519;-77
2022/07/11 04:46:05;;;;;;;2.08;1.15;;;;;;;;;;5031855;28;20029;-77
2022/07/11 04:48:31;;;;;;;2.38;1.38;;;;;;;;;;5032402;28;20120;-78
2022/07/11 04:50:57;;;;;;;1.95;1.60;;;;;;;;;;5047241;28;20345;-79
2022/07/11 04:53:22;;;;;;;3.15;1.60;;;;;;;;;;5032538;28;20421;-82
2022/07/11 04:55:48;;;;;;;4.07;1.45;;;;;;;;;;5032109;28;20032;-80
2022/07/11 04:58:13;;;;;;;2.17;1.27;;;;;;;;;;5031118;28;20048;-80
2022/07/11 05:00:38;;;;;;;2.30;1.10;;;;;;;;;;5032129;28;20025;-79
2022/07/11 05:03:04;;;;;;;2.20;1.33;;;;;;;;;;5031781;28;20022;-77
2022/07/11 05:05:30;;;;;;;1.67;1.10;;;;;;;;;;5031174;28;20167;-76
2022/07/11 05:07:55;;;;;;;2.28;1.10;;;;;;;;;;5039718;28;20108;-76
2022/07/11 05:10:21;;;;;;;1.77;1.30;;;;;;;;;;5038962;28;20048;-76
2022/07/11 05:12:46;;;;;;;1.13;1.02;;;;;;;;;;5035546;28;20369;-75
2022/07/11 05:15:11;;;;;;;3.63;1.30;;;;;;;;;;5035097;28;20171;-77
2022/07/11 05:17:37;;;;;;;0.80;0.80;;;;;;;;;;5033023;28;20067;-77
2022/07/11 05:20:03;;;;;;;1.95;0.98;;;;;;;;;;5033420;28;20048;-76
2022/07/11 05:22:28;;;;;;;2.28;1.08;;;;;;;;;;5047708;28;20022;-77
2022/07/11 05:24:54;;;;;;;1.52;0.90;;;;;;;;;;5034368;28;20024;-74
2022/07/11 05:27:19;;;;;;;1.38;1.10;;;;;;;;;;5037103;28;20017;-76
2022/07/11 05:29:45;;;;;;;1.10;1.00;;;;;;;;;;5038433;28;20370;-76
2022/07/11 05:32:10;;;;;;;1.70;0.80;;;;;;;;;;5037186;28;20030;-78
2022/07/11 05:34:35;;;;;;;2.22;0.95;;;;;;;;;;5029695;28;20408;-79
2022/07/11 05:37:01;;;;;;;1.20;1.00;;;;;;;;;;5039123;28;20033;-77
2022/07/11 05:39:26;;;;;;;3.47;1.10;;;;;;;;;;5037983;28;20064;-79
2022/07/11 05:41:52;;;;;;;4.13;0.90;;;;;;;;;;5041382;28;20024;-82
2022/07/11 05:44:18;;;;;;;4.78;1.20;;;;;;;;;;5039357;28;20028;-84
2022/07/11 05:46:44;;;;;;;2.85;1.00;;;;;;;;;;5035688;28;20078;-84
2022/07/11 05:49:09;;;;;;;2.00;1.00;;;;;;;;;;5032415;28;20448;-84
2022/07/11 05:51:36;;;;;;;1.60;0.98;;;;;;;;;;5035437;28;20044;-79
2022/07/11 05:54:01;;;;;;;1.52;1.08;;;;;;;;;;5038642;28;20077;-79
2022/07/11 05:56:27;;;;;;;2.25;1.00;;;;;;;;;;5036241;28;20029;-79
2022/07/11 05:58:52;;;;;;;1.20;0.88;;;;;;;;;;5037209;28;20387;-78
2022/07/11 06:01:17;;;;;;;0.80;0.80;;;;;;;;;;5038173;28;20048;-79
2022/07/11 06:03:43;;;;;;;1.67;0.80;;;;;;;;;;5037255;28;20075;-80
2022/07/11 06:06:10;;;;;;;1.25;0.90;;;;;;;;;;5039265;28;20040;-78
2022/07/11 06:08:42;;;;;;;1.10;0.80;;;;;;;;;;5034152;28;20021;-81
2022/07/11 06:11:14;;;;;;;4.00;1.05;;;;;;;;;;5032670;28;20334;-80
2022/07/11 06:13:40;;;;;;;2.53;0.98;;;;;;;;;;5035795;28;20135;-79
2022/07/11 06:16:06;;;;;;;1.67;0.77;;;;;;;;;;5040525;28;20017;-80
2022/07/11 06:18:32;;;;;;;1.33;0.90;;;;;;;;;;5038085;28;20131;-80
2022/07/11 06:20:57;;;;;;;2.13;1.00;;;;;;;;;;5037616;28;20487;-80
2022/07/11 06:23:23;;;;;;;1.25;0.80;;;;;;;;;;5035754;28;20096;-78
2022/07/11 06:25:48;;;;;;;7.25;0.90;;;;;;;;;;5031689;28;20111;-81
2022/07/11 06:28:13;;;;;;;1.52;0.80;;;;;;;;;;5033633;28;22966;-77
2022/07/11 06:30:39;;;;;;;2.85;1.27;;;;;;;;;;5027214;28;20094;-78
2022/07/11 06:33:04;;;;;;;2.72;1.15;;;;;;;;;;5028793;28;20139;-77
2022/07/11 06:35:30;;;;;;;2.28;0.75;;;;;;;;;;5028229;28;20029;-77
2022/07/11 06:37:56;;;;;;;1.10;0.80;;;;;;;;;;5029062;28;20437;-80
2022/07/11 06:40:22;;;;;;;4.72;0.90;;;;;;;;;;5027673;28;21018;-78
2022/07/11 06:42:48;;;;;;;2.17;0.80;;;;;;;;;;5024546;28;20142;-78
2022/07/11 06:45:14;;;;;;;2.90;1.13;;;;;;;;;;5026239;28;21214;-79
2022/07/11 06:47:39;;;;;;;1.05;0.70;;;;;;;;;;5027751;28;20020;-77
2022/07/11 06:50:05;;;;;;;1.20;0.80;;;;;;;;;;5026330;28;20512;-78
2022/07/11 06:52:30;;;;;;;1.52;1.00;;;;;;;;;;5027885;28;20052;-83
2022/07/11 06:54:55;;;;;;;1.45;0.70;;;;;;;;;;5027879;28;20123;-77
2022/07/11 06:57:21;;;;;;;1.73;0.80;;;;;;;;;;5031779;28;20093;-79
2022/07/11 06:59:46;;;;;;;1.08;0.60;;;;;;;;;;5037075;28;20345;-80
2022/07/11 07:02:11;;;;;;;2.60;0.90;;;;;;;;;;5033893;28;20289;-79
2022/07/11 07:04:37;;;;;;;2.35;0.80;;;;;;;;;;5036251;28;20345;-78
2022/07/11 07:07:02;;;;;;;1.15;0.60;;;;;;;;;;5036763;28;20387;-77
2022/07/11 07:09:28;;;;;;;0.85;0.85;;;;;;;;;;5036969;28;20112;-77
2022/07/11 07:11:54;;;;;;;4.22;1.05;;;;;;;;;;5032575;28;20030;-78
2022/07/11 07:14:20;;;;;;;2.78;0.80;;;;;;;;;;5036273;28;20025;-77
2022/07/11 07:16:45;;;;;;;1.00;0.55;;;;;;;;;;5034108;28;20032;-77
2022/07/11 07:19:10;;;;;;;1.70;0.80;;;;;;;;;;5036590;28;20021;-78
2022/07/11 07:21:35;;;;;;;0.77;0.68;;;;;;;;;;5034070;28;20071;-77
2022/07/11 07:24:01;;;;;;;3.15;1.00;;;;;;;;;;5036519;28;20036;-78
2022/07/11 07:26:26;;;;;;;0.82;0.65;;;;;;;;;;5039076;28;20021;-77
2022/07/11 07:28:52;;;;;;;0.93;0.75;;;;;;;;;;5035969;28;20433;-79
2022/07/11 07:31:17;;;;;;;0.77;0.73;;;;;;;;;;5034170;28;20349;-77
2022/07/11 07:33:42;;;;;;;3.55;1.05;;;;;;;;;;5034799;28;20106;-79
2022/07/11 07:36:08;;;;;;;2.15;0.95;;;;;;;;;;5034487;28;20460;-79
2022/07/11 07:38:34;;;;;;;1.05;0.75;;;;;;;;;;5019630;28;20037;-78
2022/07/11 07:40:59;;;;;;;1.90;0.80;;;;;;;;;;5025955;28;20028;-78
2022/07/11 07:43:24;;;;;;;1.77;0.88;;;;;;;;;;5035211;28;20064;-79
2022/07/11 07:45:50;;;;;;;0.70;0.70;;;;;;;;;;5035416;28;20105;-80
2022/07/11 07:48:15;;;;;;;1.15;0.77;;;;;;;;;;5036588;28;20075;-79
2022/07/11 07:50:42;;;;;;;1.17;0.75;;;;;;;;;;5034125;28;20502;-81
2022/07/11 07:53:07;;;;;;;1.77;0.80;;;;;;;;;;5026767;28;20102;-77
2022/07/11 07:55:33;;;;;;;1.00;0.73;;;;;;;;;;5032884;28;20028;-79
2022/07/11 07:57:58;;;;;;;1.95;0.60;;;;;;;;;;5035065;28;20098;-82
2022/07/11 08:03:10;;;;;;;3.83;0.90;;;;;;;;;;5036682;28;20090;-78
2022/07/11 08:05:35;;;;;;;1.40;0.90;;;;;;;;;;5029406;28;20025;-77
2022/07/11 08:08:01;;;;;;;1.25;0.65;;;;;;;;;;5033466;28;20036;-74
2022/07/11 08:10:26;;;;;;;2.80;0.88;;;;;;;;;;5032079;28;20867;-79
2022/07/11 08:12:52;;;;;;;1.02;0.82;;;;;;;;;;5034540;28;20162;-78
2022/07/11 08:15:17;;;;;;;2.63;1.00;;;;;;;;;;5037345;28;20046;-79
2022/07/11 08:17:42;;;;;;;1.10;1.00;;;;;;;;;;5036218;28;20112;-77
2022/07/11 08:20:08;;;;;;;2.80;0.90;;;;;;;;;;5036291;28;20431;-79
2022/07/11 08:22:33;;;;;;;1.60;0.90;;;;;;;;;;5028554;28;20107;-78
2022/07/11 08:24:59;;;;;;;1.30;0.70;;;;;;;;;;5027761;28;20068;-77
2022/07/11 08:27:24;;;;;;;1.58;0.80;;;;;;;;;;5027231;28;20025;-79
2022/07/11 08:29:49;;;;;;;1.17;0.98;;;;;;;;;;5026295;28;20029;-78
2022/07/11 08:32:15;;;;;;;1.17;1.00;;;;;;;;;;5028901;28;20036;-78
2022/07/11 08:34:40;;;;;;;1.42;1.00;;;;;;;;;;5029845;28;20028;-78
2022/07/11 08:37:05;;;;;;;3.85;0.95;;;;;;;;;;5028620;28;20113;-78
2022/07/11 08:39:31;;;;;;;1.45;0.93;;;;;;;;;;5027505;28;20112;-78
2022/07/11 08:41:56;;;;;;;9.00;1.08;;;;;;;;;;5029626;28;20111;-78
2022/07/11 08:44:22;;;;;;;1.85;0.75;;;;;;;;;;5030480;28;20029;-80
2022/07/11 08:46:49;;;;;;;2.17;1.00;;;;;;;;;;5035224;28;20460;-77
2022/07/11 08:49:14;;;;;;;2.65;1.02;;;;;;;;;;5032753;28;20028;-78
2022/07/11 08:51:41;;;;;;;1.10;1.00;;;;;;;;;;5029693;28;20033;-78
2022/07/11 08:54:06;;;;;;;1.13;0.95;;;;;;;;;;5039051;28;20140;-77
2022/07/11 08:56:32;;;;;;;1.88;0.80;;;;;;;;;;5040137;28;20128;-78
2022/07/11 08:59:00;;;;;;;2.47;1.10;;;;;;;;;;5037329;28;20041;-78
2022/07/11 09:01:29;;;;;;;2.58;1.00;;;;;;;;;;5037888;28;20460;-77
2022/07/11 09:03:55;;;;;;;1.45;0.90;;;;;;;;;;5034609;28;20033;-78
2022/07/11 09:06:20;;;;;;;1.85;1.08;;;;;;;;;;5039610;28;20044;-79
2022/07/11 09:08:46;;;;;;;1.40;0.88;;;;;;;;;;5033917;28;20049;-77
2022/07/11 09:11:12;;;;;;;1.23;0.98;;;;;;;;;;5033292;28;20036;-81
2022/07/11 09:13:37;;;;;;;4.00;1.20;;;;;;;;;;5037784;28;20055;-77
2022/07/11 09:16:04;;;;;;;1.98;0.80;;;;;;;;;;5031092;28;20039;-77
2022/07/11 09:18:34;;;;;;;3.17;1.25;;;;;;;;;;5028348;28;20033;-76
2022/07/11 09:26:42;;;;;;;1.27;0.80;;;;;;;;;;5029357;28;21275;-78
2022/07/11 09:29:08;;;;;;;;;;;;;;;;;;5029573;28;20025;-77
2022/07/11 09:31:34;;;;;;;1.10;0.98;;;;;;;;;;5029135;28;19977;-77
2022/07/11 09:34:04;;;;;;;1.13;0.85;;;;;;;;;;5030791;28;20802;-81
2022/07/11 09:36:29;;;;;;;;;;;;;;;;;;5029871;28;20526;-78
2022/07/11 09:38:55;;;;;;;2.23;0.90;;;;;;;;;;5029085;28;19912;-82
2022/07/11 09:41:24;;;;;;;4.38;1.00;;;;;;;;;;5024872;28;20037;-78
2022/07/11 09:43:50;;;;;;;2.85;1.35;;;;;;;;;;5023573;28;20025;-79
2022/07/11 09:46:18;;;;;;;1.42;1.02;;;;;;;;;;5031552;28;20039;-77
2022/07/11 09:48:44;;;;;;;0.88;0.70;;;;;;;;;;5030160;28;20102;-80
2022/07/11 09:51:19;;;;;;;1.40;0.77;;;;;;;;;;5029844;28;20033;-77
2022/07/11 09:53:55;;;;;;;2.50;0.95;;;;;;;;;;5029442;28;20094;-77
2022/07/11 09:56:23;;;;;;;1.20;0.80;;;;;;;;;;5029087;28;20023;-79
2022/07/11 09:58:57;;;;;;;1.27;0.85;;;;;;;;;;5029197;28;20086;-78
2022/07/11 10:01:23;;;;;;;0.57;0.57;;;;;;;;;;5035907;28;21012;-74
2022/07/11 10:03:48;;;;;;;2.72;0.80;;;;;;;;;;5036011;28;20020;-78
2022/07/11 10:06:14;;;;;;;2.05;0.95;;;;;;;;;;5030952;28;20348;-78
2022/07/11 10:08:39;;;;;;;2.35;0.90;;;;;;;;;;5036038;28;20452;-77
2022/07/11 10:11:04;;;;;;;2.97;0.80;;;;;;;;;;5036209;28;20071;-80
2022/07/11 10:13:30;;;;;;;1.45;0.70;;;;;;;;;;5037395;28;20079;-79
2022/07/11 10:15:57;;;;;;;1.65;0.70;;;;;;;;;;5034066;28;20336;-78
2022/07/11 10:18:33;;;;;;;1.00;0.80;;;;;;;;;;5036878;28;20474;-81
2022/07/11 10:21:00;;;;;;;2.05;1.00;;;;;;;;;;5037601;28;20032;-78
2022/07/11 10:23:30;;;;;;;3.10;0.75;;;;;;;;;;5038101;28;20119;-80
2022/07/11 10:26:31;;;;;;;1.95;0.90;;;;;;;;;;5028507;28;20367;-77
2022/07/11 10:28:56;;;;;;;1.00;0.75;;;;;;;;;;4952828;28;20041;-77
2022/07/11 10:31:23;;;;;;;2.28;0.82;;;;;;;;;;4955599;28;20051;-76
2022/07/11 10:34:10;;;;;;;0.98;0.85;;;;;;;;;;4958897;28;20066;-77
2022/07/11 10:36:42;;;;;;;0.70;0.70;;;;;;;;;;4953661;28;20074;-77
2022/07/11 10:39:27;;;;;;;1.52;0.90;;;;;;;;;;4951369;28;20469;-78
2022/07/11 10:41:53;;;;;;;1.85;0.73;;;;;;;;;;4951568;28;20058;-77
2022/07/11 10:44:18;;;;;;;0.88;0.70;;;;;;;;;;4950706;28;20047;-76
2022/07/11 10:46:44;;;;;;;3.35;0.75;;;;;;;;;;4952699;28;20031;-78
2022/07/11 10:49:12;;;;;;;0.77;0.70;;;;;;;;;;4951864;28;20042;-79
2022/07/11 10:51:44;;;;;;;1.05;0.80;;;;;;;;;;4952389;28;20042;-79
2022/07/11 10:54:19;;;;;;;1.15;0.82;;;;;;;;;;4950958;28;20468;-76
2022/07/11 10:57:03;;;;;;;2.17;1.00;;;;;;;;;;4959812;28;20379;-76
2022/07/11 10:59:28;;;;;;;1.42;0.60;;;;;;;;;;4958941;28;20014;-80
2022/07/11 11:02:12;;;;;;;1.15;0.60;;;;;;;;;;4954863;28;20037;-77
2022/07/11 11:04:44;;;;;;;0.70;0.70;;;;;;;;;;5027227;28;20028;-78
2022/07/11 11:07:28;;;;;;;0.70;0.70;;;;;;;;;;5027168;28;20068;-83
2022/07/11 11:09:54;;;;;;;1.35;0.63;;;;;;;;;;5030184;28;20041;-79
2022/07/11 11:12:20;;;;;;;1.98;1.23;;;;;;;;;;5028135;28;20467;-79
2022/07/11 11:14:45;;;;;;;1.25;0.80;;;;;;;;;;5027251;28;20031;-83
2022/07/11 11:17:29;;;;;;;1.88;1.05;;;;;;;;;;5031566;28;20397;-78
2022/07/11 11:19:55;;;;;;;1.23;1.10;;;;;;;;;;5027898;28;20044;-79
2022/07/11 11:22:21;;;;;;;1.20;0.93;;;;;;;;;;5028994;28;20419;-78
2022/07/11 11:24:52;;;;;;;1.13;0.90;;;;;;;;;;5027849;28;20128;-79
2022/07/11 11:27:26;;;;;;;0.70;0.70;;;;;;;;;;5030389;28;20032;-77
2022/07/11 11:29:55;;;;;;;2.05;0.80;;;;;;;;;;5029117;28;20029;-74
2022/07/11 11:32:21;;;;;;;1.25;0.90;;;;;;;;;;5035604;28;20448;-76
2022/07/11 11:34:47;;;;;;;1.67;0.90;;;;;;;;;;5033042;28;20498;-78
2022/07/11 11:37:14;;;;;;;1.15;1.00;;;;;;;;;;5029384;28;20025;-77
2022/07/11 11:39:40;;;;;;;1.48;0.93;;;;;;;;;;5027288;28;20029;-78
2022/07/11 11:42:07;;;;;;;0.60;0.60;;;;;;;;;;5029112;28;20035;-78
2022/07/11 11:44:32;;;;;;;1.15;1.00;;;;;;;;;;5027299;28;21028;-77
2022/07/11 11:46:58;;;;;;;1.05;0.80;;;;;;;;;;5026427;28;20033;-76
2022/07/11 11:49:23;;;;;;;2.78;0.70;;;;;;;;;;5027768;28;20033;-78
2022/07/11 11:51:49;;;;;;;0.80;0.80;;;;;;;;;;5028069;28;20047;-79
2022/07/11 11:54:21;;;;;;;1.13;0.98;;;;;;;;;;5027135;28;20021;-77
2022/07/11 11:56:47;;;;;;;1.30;1.13;;;;;;;;;;5028014;28;20043;-78
2022/07/11 11:59:12;;;;;;;1.20;1.10;;;;;;;;;;5036516;28;20452;-79
2022/07/11 12:01:43;;;;;;;1.15;0.80;;;;;;;;;;5028595;28;20025;-78
2022/07/11 12:04:10;;;;;;;1.10;1.02;;;;;;;;;;5029645;28;20063;-77
2022/07/11 12:06:49;;;;;;;0.73;0.73;;;;;;;;;;5027832;28;20459;-78
2022/07/11 12:09:18;;;;;;;2.20;1.20;;;;;;;;;;5027743;28;20173;-78
2022/07/11 12:11:45;;;;;;;2.05;0.93;;;;;;;;;;5034009;28;20044;-78
2022/07/11 12:14:11;;;;;;;1.73;0.95;;;;;;;;;;5036547;28;20025;-76
2022/07/11 12:16:44;;;;;;;2.20;0.90;;;;;;;;;;5026335;28;20082;-78
2022/07/11 12:19:21;;;;;;;1.00;0.90;;;;;;;;;;5033877;28;20400;-78
2022/07/11 12:21:51;;;;;;;0.80;0.80;;;;;;;;;;5031374;28;20029;-78
2022/07/11 12:24:20;;;;;;;1.02;0.90;;;;;;;;;;5036089;28;20025;-78
2022/07/11 12:26:46;;;;;;;;;;;;;;;;;;5034790;28;20143;-78
2022/07/11 12:29:16;;;;;;;1.02;0.82;;;;;;;;;;5033845;28;19917;-78
2022/07/11 12:31:54;;;;;;;6.15;0.90;;;;;;;;;;5033691;28;20029;-77
2022/07/11 12:34:25;;;;;;;1.33;0.68;;;;;;;;;;5035576;28;20025;-81
2022/07/11 12:37:00;;;;;;;0.88;0.70;;;;;;;;;;5033181;28;20029;-82
2022/07/11 12:39:27;;;;;;;0.68;0.68;;;;;;;;;;5034265;28;20028;-79
2022/07/11 12:41:53;;;;;;;0.98;0.90;;;;;;;;;;5032717;28;20468;-77
2022/07/11 12:47:05;;;;;;;1.90;0.80;;;;;;;;;;5036842;28;20036;-79
2022/07/11 12:49:33;;;;;;;1.10;1.00;;;;;;;;;;5035585;28;20351;-79
2022/07/11 12:52:00;;;;;;;2.17;1.25;;;;;;;;;;5031244;28;20049;-79
2022/07/11 12:54:29;;;;;;;0.80;0.80;;;;;;;;;;5033553;28;20618;-81
2022/07/11 12:56:54;;;;;;;;;;;;;;;;;;5029913;28;20036;-79
2022/07/11 12:59:20;;;;;;;3.33;0.90;;;;;;;;;;5035082;28;19912;-80
2022/07/11 13:01:56;;;;;;;0.70;0.70;;;;;;;;;;5030021;28;20316;-78
2022/07/11 13:04:39;;;;;;;3.65;0.80;;;;;;;;;;5032325;28;20115;-80
2022/07/11 13:10:09;;;;;;;0.60;0.60;;;;;;;;;;5034827;28;20027;-80
2022/07/11 13:12:34;;;;;;;1.50;0.90;;;;;;;;;;5028777;28;20032;-78
2022/07/11 13:15:09;;;;;;;1.13;0.80;;;;;;;;;;5035136;28;20034;-78
2022/07/11 13:17:35;;;;;;;1.65;0.88;;;;;;;;;;5030666;28;20021;-80
2022/07/11 13:20:00;;;;;;;0.93;0.70;;;;;;;;;;5034785;28;20032;-80
2022/07/11 13:22:25;;;;;;;1.10;0.93;;;;;;;;;;5035910;28;20475;-79
2022/07/11 13:24:51;;;;;;;1.60;0.93;;;;;;;;;;5035337;28;20028;-79
2022/07/11 13:27:17;;;;;;;1.10;0.80;;;;;;;;;;5038028;28;20116;-79
2022/07/11 13:29:42;;;;;;;1.02;0.93;;;;;;;;;;5037125;28;21027;-78
2022/07/11 13:32:08;;;;;;;0.80;0.80;;;;;;;;;;5035758;28;20029;-79
2022/07/11 13:34:33;;;;;;;1.33;0.90;;;;;;;;;;5029254;28;20071;-80
2022/07/11 13:36:58;;;;;;;2.90;0.82;;;;;;;;;;5038692;28;20107;-77
2022/07/11 13:39:24;;;;;;;1.00;0.70;;;;;;;;;;5039109;28;20022;-76
2022/07/11 13:41:49;;;;;;;1.33;0.70;;;;;;;;;;5038100;28;20126;-77
2022/07/11 13:44:15;;;;;;;2.13;0.90;;;;;;;;;;5038900;28;20021;-77
2022/07/11 13:46:40;;;;;;;0.80;0.80;;;;;;;;;;5039823;28;20092;-76
2022/07/11 13:49:05;;;;;;;1.90;1.00;;;;;;;;;;5038977;28;20448;-77
2022/07/11 13:51:31;;;;;;;0.93;0.90;;;;;;;;;;5033375;28;20060;-80
2022/07/11 13:53:57;;;;;;;1.27;0.80;;;;;;;;;;5029949;28;20110;-78
2022/07/11 13:56:23;;;;;;;3.28;0.80;;;;;;;;;;5029829;28;21441;-78
2022/07/11 13:58:48;;;;;;;0.70;0.70;;;;;;;;;;5034140;28;20440;-77
2022/07/11 14:01:14;;;;;;;0.88;0.73;;;;;;;;;;5031761;28;20044;-77
2022/07/11 14:03:39;;;;;;;1.02;0.80;;;;;;;;;;5055452;28;20505;-79
2022/07/11 14:06:05;;;;;;;2.97;0.98;;;;;;;;;;5055335;28;20028;-79
2022/07/11 14:08:31;;;;;;;0.80;0.80;;;;;;;;;;5054735;28;20020;-79
2022/07/11 14:10:57;;;;;;;1.30;0.80;;;;;;;;;;5055226;28;20032;-78
2022/07/11 14:13:23;;;;;;;2.88;0.60;;;;;;;;;;5055062;28;20492;-80
2022/07/11 14:15:48;;;;;;;1.02;0.80;;;;;;;;;;5054818;28;20044;-78
2022/07/11 14:18:14;;;;;;;0.80;0.65;;;;;;;;;;5055330;28;20031;-82
2022/07/11 14:20:39;;;;;;;2.55;0.80;;;;;;;;;;5055475;28;20025;-77
2022/07/11 14:23:05;;;;;;;0.80;0.80;;;;;;;;;;5054743;28;20111;-78
2022/07/11 14:25:30;;;;;;;1.58;0.82;;;;;;;;;;5055232;28;20067;-76
2022/07/11 14:27:56;;;;;;;0.80;0.70;;;;;;;;;;5055243;28;20048;-79
2022/07/11 14:30:21;;;;;;;1.23;0.90;;;;;;;;;;5054783;28;20489;-79
2022/07/11 14:32:47;;;;;;;0.80;0.80;;;;;;;;;;5055039;28;20036;-78
2022/07/11 14:35:12;;;;;;;1.17;0.70;;;;;;;;;;5055086;28;20029;-82
2022/07/11 14:37:38;;;;;;;5.63;0.80;;;;;;;;;;5047894;28;20100;-78
2022/07/11 14:40:03;;;;;;;0.82;0.77;;;;;;;;;;5037603;28;20029;-79
2022/07/11 14:42:29;;;;;;;1.75;0.80;;;;;;;;;;5042216;28;20025;-81
2022/07/11 14:44:54;;;;;;;0.93;0.82;;;;;;;;;;5045918;28;20100;-77
2022/07/11 14:47:20;;;;;;;0.98;0.70;;;;;;;;;;5026890;28;20179;-75
2022/07/11 14:49:46;;;;;;;1.60;1.15;;;;;;;;;;5028964;28;20029;-76
2022/07/11 14:52:11;;;;;;;2.70;1.50;;;;;;;;;;5020342;28;20049;-75
2022/07/11 14:54:36;;;;;;;1.50;1.40;;;;;;;;;;5029052;28;20029;-74